sensor_id;sensor_type;location;lat;lon;timestamp;P1;durP1;ratioP1;P2;durP2;ratioP2
65377;SDS011;51982;51.042;13.806;2023-11-18T00:01:48;1.95;;;1.10;;
65377;SDS011;51982;51.042;13.806;2023-11-18T00:04:13;3.00;;;1.80;;
65377;SDS011;51982;51.042;13.806;2023-11-18T00:06:45;3.05;;;1.67;;
65377;SDS011;51982;51.042;13.806;2023-11-18T00:09:11;3.55;;;1.80;;
65377;SDS011;51982;51.042;13.806;2023-11-18T00:11:42;4.18;;;2.05;;
65377;SDS011;51982;51.042;13.806;2023-11-18T00:14:08;2.90;;;2.00;;
65377;SDS011;51982;51.042;13.806;2023-11-18T00:16:36;4.18;;;2.10;;
65377;SDS011;51982;51.042;13.806;2023-11-18T00:19:01;3.00;;;1.90;;
65377;SDS011;51982;51.042;13.806;2023-11-18T00:21:27;2.60;;;1.90;;
65377;SDS011;51982;51.042;13.806;2023-11-18T00:23:55;3.05;;;2.22;;
65377;SDS011;51982;51.042;13.806;2023-11-18T00:26:21;3.25;;;1.98;;
65377;SDS011;51982;51.042;13.806;2023-11-18T00:28:46;3.00;;;1.67;;
65377;SDS011;51982;51.042;13.806;2023-11-18T00:31:12;2.92;;;1.92;;
65377;SDS011;51982;51.042;13.806;2023-11-18T00:33:41;2.72;;;1.83;;
65377;SDS011;51982;51.042;13.806;2023-11-18T00:36:06;1.90;;;1.58;;
65377;SDS011;51982;51.042;13.806;2023-11-18T00:38:32;2.80;;;1.88;;
65377;SDS011;51982;51.042;13.806;2023-11-18T00:40:57;2.35;;;1.60;;
65377;SDS011;51982;51.042;13.806;2023-11-18T00:43:22;4.53;;;1.77;;
65377;SDS011;51982;51.042;13.806;2023-11-18T00:45:48;2.13;;;1.38;;
65377;SDS011;51982;51.042;13.806;2023-11-18T00:48:13;2.17;;;1.50;;
65377;SDS011;51982;51.042;13.806;2023-11-18T00:50:39;1.83;;;1.48;;
65377;SDS011;51982;51.042;13.806;2023-11-18T00:53:05;3.03;;;1.60;;
65377;SDS011;51982;51.042;13.806;2023-11-18T00:55:30;2.78;;;1.83;;
65377;SDS011;51982;51.042;13.806;2023-11-18T00:57:56;2.65;;;1.50;;
65377;SDS011;51982;51.042;13.806;2023-11-18T01:00:22;2.55;;;1.60;;
65377;SDS011;51982;51.042;13.806;2023-11-18T01:02:47;2.25;;;1.55;;
65377;SDS011;51982;51.042;13.806;2023-11-18T01:05:14;2.03;;;1.50;;
65377;SDS011;51982;51.042;13.806;2023-11-18T01:07:40;2.65;;;1.80;;
65377;SDS011;51982;51.042;13.806;2023-11-18T01:10:06;2.35;;;1.67;;
65377;SDS011;51982;51.042;13.806;2023-11-18T01:12:38;3.58;;;1.77;;
65377;SDS011;51982;51.042;13.806;2023-11-18T01:15:06;2.90;;;2.03;;
65377;SDS011;51982;51.042;13.806;2023-11-18T01:17:35;2.55;;;1.73;;
65377;SDS011;51982;51.042;13.806;2023-11-18T01:20:00;2.65;;;1.83;;
65377;SDS011;51982;51.042;13.806;2023-11-18T01:22:31;2.20;;;1.70;;
65377;SDS011;51982;51.042;13.806;2023-11-18T01:24:56;3.08;;;1.77;;
65377;SDS011;51982;51.042;13.806;2023-11-18T01:27:23;1.73;;;1.30;;
65377;SDS011;51982;51.042;13.806;2023-11-18T01:29:48;3.30;;;1.98;;
65377;SDS011;51982;51.042;13.806;2023-11-18T01:32:13;4.05;;;1.50;;
65377;SDS011;51982;51.042;13.806;2023-11-18T01:34:39;2.70;;;1.67;;
65377;SDS011;51982;51.042;13.806;2023-11-18T01:37:05;2.70;;;1.67;;
65377;SDS011;51982;51.042;13.806;2023-11-18T01:39:32;2.28;;;1.77;;
65377;SDS011;51982;51.042;13.806;2023-11-18T01:41:58;2.17;;;1.50;;
65377;SDS011;51982;51.042;13.806;2023-11-18T01:44:24;1.95;;;1.50;;
65377;SDS011;51982;51.042;13.806;2023-11-18T01:46:49;4.05;;;1.60;;
65377;SDS011;51982;51.042;13.806;2023-11-18T01:49:15;3.22;;;1.70;;
65377;SDS011;51982;51.042;13.806;2023-11-18T01:51:43;2.40;;;1.75;;
65377;SDS011;51982;51.042;13.806;2023-11-18T01:54:12;2.30;;;1.40;;
65377;SDS011;51982;51.042;13.806;2023-11-18T01:56:44;3.83;;;1.55;;
65377;SDS011;51982;51.042;13.806;2023-11-18T01:59:12;2.67;;;1.63;;
65377;SDS011;51982;51.042;13.806;2023-11-18T02:01:47;2.72;;;1.70;;
65377;SDS011;51982;51.042;13.806;2023-11-18T02:04:15;2.72;;;1.83;;
65377;SDS011;51982;51.042;13.806;2023-11-18T02:06:41;1.73;;;1.13;;
65377;SDS011;51982;51.042;13.806;2023-11-18T02:09:07;2.00;;;1.40;;
65377;SDS011;51982;51.042;13.806;2023-11-18T02:11:39;3.70;;;1.35;;
65377;SDS011;51982;51.042;13.806;2023-11-18T02:14:13;2.95;;;1.90;;
65377;SDS011;51982;51.042;13.806;2023-11-18T02:16:48;2.58;;;1.48;;
65377;SDS011;51982;51.042;13.806;2023-11-18T02:19:21;2.45;;;1.55;;
65377;SDS011;51982;51.042;13.806;2023-11-18T02:21:49;2.95;;;1.65;;
65377;SDS011;51982;51.042;13.806;2023-11-18T02:24:32;2.22;;;1.60;;
65377;SDS011;51982;51.042;13.806;2023-11-18T02:27:02;2.97;;;2.00;;
65377;SDS011;51982;51.042;13.806;2023-11-18T02:29:32;2.40;;;1.65;;
65377;SDS011;51982;51.042;13.806;2023-11-18T02:32:03;2.95;;;2.00;;
65377;SDS011;51982;51.042;13.806;2023-11-18T02:35:00;2.38;;;1.50;;
65377;SDS011;51982;51.042;13.806;2023-11-18T02:37:30;1.95;;;1.42;;
65377;SDS011;51982;51.042;13.806;2023-11-18T02:40:00;2.15;;;1.45;;
65377;SDS011;51982;51.042;13.806;2023-11-18T02:42:33;2.53;;;1.75;;
65377;SDS011;51982;51.042;13.806;2023-11-18T02:45:01;2.45;;;1.73;;
65377;SDS011;51982;51.042;13.806;2023-11-18T02:47:27;4.30;;;1.63;;
65377;SDS011;51982;51.042;13.806;2023-11-18T02:49:55;3.08;;;1.65;;
65377;SDS011;51982;51.042;13.806;2023-11-18T02:52:39;3.03;;;1.70;;
65377;SDS011;51982;51.042;13.806;2023-11-18T02:55:07;2.35;;;1.77;;
65377;SDS011;51982;51.042;13.806;2023-11-18T02:57:33;2.78;;;1.80;;
65377;SDS011;51982;51.042;13.806;2023-11-18T02:59:59;3.85;;;2.00;;
65377;SDS011;51982;51.042;13.806;2023-11-18T03:02:29;3.20;;;1.85;;
65377;SDS011;51982;51.042;13.806;2023-11-18T03:04:57;3.15;;;2.10;;
65377;SDS011;51982;51.042;13.806;2023-11-18T03:07:23;5.75;;;3.08;;
65377;SDS011;51982;51.042;13.806;2023-11-18T03:09:48;3.33;;;1.90;;
65377;SDS011;51982;51.042;13.806;2023-11-18T03:12:14;2.97;;;2.13;;
65377;SDS011;51982;51.042;13.806;2023-11-18T03:14:39;3.58;;;1.77;;
65377;SDS011;51982;51.042;13.806;2023-11-18T03:17:04;3.72;;;2.20;;
65377;SDS011;51982;51.042;13.806;2023-11-18T03:19:32;3.03;;;1.88;;
65377;SDS011;51982;51.042;13.806;2023-11-18T03:21:59;2.72;;;1.80;;
65377;SDS011;51982;51.042;13.806;2023-11-18T03:24:25;3.15;;;1.98;;
65377;SDS011;51982;51.042;13.806;2023-11-18T03:26:50;3.47;;;1.92;;
65377;SDS011;51982;51.042;13.806;2023-11-18T03:29:15;3.47;;;2.08;;
65377;SDS011;51982;51.042;13.806;2023-11-18T03:31:41;3.08;;;2.03;;
65377;SDS011;51982;51.042;13.806;2023-11-18T03:34:09;4.38;;;2.80;;
65377;SDS011;51982;51.042;13.806;2023-11-18T03:36:34;2.45;;;1.90;;
65377;SDS011;51982;51.042;13.806;2023-11-18T03:38:59;3.70;;;1.92;;
65377;SDS011;51982;51.042;13.806;2023-11-18T03:41:26;2.90;;;1.90;;
65377;SDS011;51982;51.042;13.806;2023-11-18T03:43:51;3.75;;;2.20;;
65377;SDS011;51982;51.042;13.806;2023-11-18T03:46:17;3.30;;;2.13;;
65377;SDS011;51982;51.042;13.806;2023-11-18T03:48:43;4.07;;;2.08;;
65377;SDS011;51982;51.042;13.806;2023-11-18T03:51:09;3.47;;;2.35;;
65377;SDS011;51982;51.042;13.806;2023-11-18T03:53:34;3.85;;;2.10;;
65377;SDS011;51982;51.042;13.806;2023-11-18T03:56:00;4.85;;;2.42;;
65377;SDS011;51982;51.042;13.806;2023-11-18T03:58:25;3.97;;;2.40;;
65377;SDS011;51982;51.042;13.806;2023-11-18T04:00:50;3.65;;;2.17;;
65377;SDS011;51982;51.042;13.806;2023-11-18T04:03:15;3.35;;;2.28;;
65377;SDS011;51982;51.042;13.806;2023-11-18T04:05:41;3.08;;;2.20;;
65377;SDS011;51982;51.042;13.806;2023-11-18T04:08:06;4.05;;;2.42;;
65377;SDS011;51982;51.042;13.806;2023-11-18T04:10:31;4.40;;;2.70;;
65377;SDS011;51982;51.042;13.806;2023-11-18T04:12:56;3.60;;;2.40;;
65377;SDS011;51982;51.042;13.806;2023-11-18T04:15:22;3.22;;;2.20;;
65377;SDS011;51982;51.042;13.806;2023-11-18T04:17:47;3.22;;;2.10;;
65377;SDS011;51982;51.042;13.806;2023-11-18T04:20:12;4.15;;;2.47;;
65377;SDS011;51982;51.042;13.806;2023-11-18T04:22:41;3.40;;;2.40;;
65377;SDS011;51982;51.042;13.806;2023-11-18T04:25:09;4.22;;;2.25;;
65377;SDS011;51982;51.042;13.806;2023-11-18T04:27:36;3.53;;;2.53;;
65377;SDS011;51982;51.042;13.806;2023-11-18T04:30:02;3.65;;;2.33;;
65377;SDS011;51982;51.042;13.806;2023-11-18T04:32:28;2.95;;;2.10;;
65377;SDS011;51982;51.042;13.806;2023-11-18T04:34:57;3.67;;;2.50;;
65377;SDS011;51982;51.042;13.806;2023-11-18T04:37:22;3.83;;;2.65;;
65377;SDS011;51982;51.042;13.806;2023-11-18T04:39:47;4.30;;;2.17;;
65377;SDS011;51982;51.042;13.806;2023-11-18T04:42:12;2.40;;;1.85;;
65377;SDS011;51982;51.042;13.806;2023-11-18T04:44:38;2.78;;;1.85;;
65377;SDS011;51982;51.042;13.806;2023-11-18T04:47:03;4.78;;;2.20;;
65377;SDS011;51982;51.042;13.806;2023-11-18T04:49:29;4.32;;;2.58;;
65377;SDS011;51982;51.042;13.806;2023-11-18T04:51:54;5.43;;;2.08;;
65377;SDS011;51982;51.042;13.806;2023-11-18T04:54:19;4.18;;;2.45;;
65377;SDS011;51982;51.042;13.806;2023-11-18T04:56:45;3.70;;;2.22;;
65377;SDS011;51982;51.042;13.806;2023-11-18T04:59:11;3.88;;;2.33;;
65377;SDS011;51982;51.042;13.806;2023-11-18T05:01:36;3.80;;;2.42;;
65377;SDS011;51982;51.042;13.806;2023-11-18T05:04:02;5.35;;;2.50;;
65377;SDS011;51982;51.042;13.806;2023-11-18T05:06:28;3.10;;;2.08;;
65377;SDS011;51982;51.042;13.806;2023-11-18T05:08:53;3.90;;;2.13;;
65377;SDS011;51982;51.042;13.806;2023-11-18T05:11:19;5.13;;;2.50;;
65377;SDS011;51982;51.042;13.806;2023-11-18T05:13:45;2.72;;;1.63;;
65377;SDS011;51982;51.042;13.806;2023-11-18T05:16:10;4.03;;;2.20;;
65377;SDS011;51982;51.042;13.806;2023-11-18T05:18:35;3.95;;;2.45;;
65377;SDS011;51982;51.042;13.806;2023-11-18T05:21:02;3.53;;;2.35;;
65377;SDS011;51982;51.042;13.806;2023-11-18T05:23:31;5.53;;;2.30;;
65377;SDS011;51982;51.042;13.806;2023-11-18T05:25:58;4.28;;;2.63;;
65377;SDS011;51982;51.042;13.806;2023-11-18T05:28:24;5.00;;;2.20;;
65377;SDS011;51982;51.042;13.806;2023-11-18T05:30:49;3.67;;;2.33;;
65377;SDS011;51982;51.042;13.806;2023-11-18T05:33:15;6.95;;;2.42;;
65377;SDS011;51982;51.042;13.806;2023-11-18T05:35:42;4.60;;;2.65;;
65377;SDS011;51982;51.042;13.806;2023-11-18T05:38:13;3.80;;;2.25;;
65377;SDS011;51982;51.042;13.806;2023-11-18T05:40:41;2.97;;;1.80;;
65377;SDS011;51982;51.042;13.806;2023-11-18T05:43:08;3.05;;;1.98;;
65377;SDS011;51982;51.042;13.806;2023-11-18T05:45:40;3.72;;;2.03;;
65377;SDS011;51982;51.042;13.806;2023-11-18T05:48:26;5.00;;;2.70;;
65377;SDS011;51982;51.042;13.806;2023-11-18T05:50:51;4.55;;;2.30;;
65377;SDS011;51982;51.042;13.806;2023-11-18T05:53:16;3.40;;;2.38;;
65377;SDS011;51982;51.042;13.806;2023-11-18T05:55:42;3.83;;;2.40;;
65377;SDS011;51982;51.042;13.806;2023-11-18T05:58:07;3.10;;;2.28;;
65377;SDS011;51982;51.042;13.806;2023-11-18T06:00:33;3.25;;;2.17;;
65377;SDS011;51982;51.042;13.806;2023-11-18T06:02:59;4.68;;;2.40;;
65377;SDS011;51982;51.042;13.806;2023-11-18T06:05:25;4.05;;;2.60;;
65377;SDS011;51982;51.042;13.806;2023-11-18T06:07:51;4.50;;;2.45;;
65377;SDS011;51982;51.042;13.806;2023-11-18T06:10:16;3.25;;;2.38;;
65377;SDS011;51982;51.042;13.806;2023-11-18T06:12:41;3.33;;;2.25;;
65377;SDS011;51982;51.042;13.806;2023-11-18T06:15:07;3.88;;;2.40;;
65377;SDS011;51982;51.042;13.806;2023-11-18T06:17:34;3.90;;;2.03;;
65377;SDS011;51982;51.042;13.806;2023-11-18T06:19:59;4.22;;;2.80;;
65377;SDS011;51982;51.042;13.806;2023-11-18T06:22:24;3.90;;;2.20;;
65377;SDS011;51982;51.042;13.806;2023-11-18T06:24:50;4.05;;;2.83;;
65377;SDS011;51982;51.042;13.806;2023-11-18T06:27:16;4.35;;;2.60;;
65377;SDS011;51982;51.042;13.806;2023-11-18T06:29:43;4.22;;;2.78;;
65377;SDS011;51982;51.042;13.806;2023-11-18T06:32:08;4.55;;;2.45;;
65377;SDS011;51982;51.042;13.806;2023-11-18T06:34:33;3.50;;;2.60;;
65377;SDS011;51982;51.042;13.806;2023-11-18T06:36:58;5.00;;;2.88;;
65377;SDS011;51982;51.042;13.806;2023-11-18T06:39:24;3.47;;;2.00;;
65377;SDS011;51982;51.042;13.806;2023-11-18T06:41:54;3.90;;;2.53;;
65377;SDS011;51982;51.042;13.806;2023-11-18T06:44:21;3.72;;;2.80;;
65377;SDS011;51982;51.042;13.806;2023-11-18T06:46:49;3.90;;;2.58;;
65377;SDS011;51982;51.042;13.806;2023-11-18T06:49:15;4.18;;;2.75;;
65377;SDS011;51982;51.042;13.806;2023-11-18T06:51:41;4.43;;;2.83;;
65377;SDS011;51982;51.042;13.806;2023-11-18T06:54:06;5.68;;;2.50;;
65377;SDS011;51982;51.042;13.806;2023-11-18T06:56:36;4.82;;;2.72;;
65377;SDS011;51982;51.042;13.806;2023-11-18T06:59:08;4.50;;;2.70;;
65377;SDS011;51982;51.042;13.806;2023-11-18T07:01:40;3.72;;;2.40;;
65377;SDS011;51982;51.042;13.806;2023-11-18T07:04:07;5.07;;;2.63;;
65377;SDS011;51982;51.042;13.806;2023-11-18T07:06:36;3.85;;;2.80;;
65377;SDS011;51982;51.042;13.806;2023-11-18T07:09:06;4.38;;;2.72;;
65377;SDS011;51982;51.042;13.806;2023-11-18T07:11:41;4.80;;;2.85;;
65377;SDS011;51982;51.042;13.806;2023-11-18T07:14:06;4.35;;;2.60;;
65377;SDS011;51982;51.042;13.806;2023-11-18T07:16:34;3.45;;;2.50;;
65377;SDS011;51982;51.042;13.806;2023-11-18T07:18:59;4.57;;;2.50;;
65377;SDS011;51982;51.042;13.806;2023-11-18T07:21:25;4.85;;;3.05;;
65377;SDS011;51982;51.042;13.806;2023-11-18T07:23:50;6.20;;;3.40;;
65377;SDS011;51982;51.042;13.806;2023-11-18T07:26:16;6.38;;;3.75;;
65377;SDS011;51982;51.042;13.806;2023-11-18T07:28:41;5.07;;;3.03;;
65377;SDS011;51982;51.042;13.806;2023-11-18T07:31:07;4.63;;;2.97;;
65377;SDS011;51982;51.042;13.806;2023-11-18T07:33:33;5.47;;;3.10;;
65377;SDS011;51982;51.042;13.806;2023-11-18T07:35:58;5.28;;;2.95;;
65377;SDS011;51982;51.042;13.806;2023-11-18T07:38:23;5.20;;;3.38;;
65377;SDS011;51982;51.042;13.806;2023-11-18T07:40:49;4.47;;;2.63;;
65377;SDS011;51982;51.042;13.806;2023-11-18T07:43:15;4.75;;;2.83;;
65377;SDS011;51982;51.042;13.806;2023-11-18T07:45:41;4.47;;;2.85;;
65377;SDS011;51982;51.042;13.806;2023-11-18T07:48:11;4.50;;;2.80;;
65377;SDS011;51982;51.042;13.806;2023-11-18T07:50:42;4.38;;;2.50;;
65377;SDS011;51982;51.042;13.806;2023-11-18T07:53:09;4.95;;;3.00;;
65377;SDS011;51982;51.042;13.806;2023-11-18T07:55:35;4.45;;;2.60;;
65377;SDS011;51982;51.042;13.806;2023-11-18T07:58:04;4.97;;;2.72;;
65377;SDS011;51982;51.042;13.806;2023-11-18T08:00:29;4.20;;;2.47;;
65377;SDS011;51982;51.042;13.806;2023-11-18T08:02:58;3.60;;;2.47;;
65377;SDS011;51982;51.042;13.806;2023-11-18T08:05:25;4.13;;;2.55;;
65377;SDS011;51982;51.042;13.806;2023-11-18T08:07:51;4.47;;;2.80;;
65377;SDS011;51982;51.042;13.806;2023-11-18T08:10:16;4.03;;;2.63;;
65377;SDS011;51982;51.042;13.806;2023-11-18T08:12:43;4.65;;;2.58;;
65377;SDS011;51982;51.042;13.806;2023-11-18T08:15:09;5.82;;;2.55;;
65377;SDS011;51982;51.042;13.806;2023-11-18T08:17:35;4.15;;;2.67;;
65377;SDS011;51982;51.042;13.806;2023-11-18T08:20:01;4.47;;;2.88;;
65377;SDS011;51982;51.042;13.806;2023-11-18T08:22:33;3.80;;;2.47;;
65377;SDS011;51982;51.042;13.806;2023-11-18T08:24:59;3.63;;;2.65;;
65377;SDS011;51982;51.042;13.806;2023-11-18T08:27:24;6.10;;;2.95;;
65377;SDS011;51982;51.042;13.806;2023-11-18T08:29:49;3.92;;;2.70;;
65377;SDS011;51982;51.042;13.806;2023-11-18T08:32:15;5.35;;;2.83;;
65377;SDS011;51982;51.042;13.806;2023-11-18T08:34:40;3.30;;;2.15;;
65377;SDS011;51982;51.042;13.806;2023-11-18T08:37:06;4.57;;;2.63;;
65377;SDS011;51982;51.042;13.806;2023-11-18T08:39:31;4.63;;;2.88;;
65377;SDS011;51982;51.042;13.806;2023-11-18T08:41:57;4.60;;;2.75;;
65377;SDS011;51982;51.042;13.806;2023-11-18T08:44:22;4.97;;;2.92;;
65377;SDS011;51982;51.042;13.806;2023-11-18T08:46:49;4.47;;;2.90;;
65377;SDS011;51982;51.042;13.806;2023-11-18T08:49:17;4.97;;;2.72;;
65377;SDS011;51982;51.042;13.806;2023-11-18T08:51:48;5.47;;;3.03;;
65377;SDS011;51982;51.042;13.806;2023-11-18T08:54:14;4.28;;;2.55;;
65377;SDS011;51982;51.042;13.806;2023-11-18T08:56:53;4.13;;;2.80;;
65377;SDS011;51982;51.042;13.806;2023-11-18T08:59:19;5.97;;;2.80;;
65377;SDS011;51982;51.042;13.806;2023-11-18T09:01:52;5.50;;;2.90;;
65377;SDS011;51982;51.042;13.806;2023-11-18T09:04:24;4.13;;;2.55;;
65377;SDS011;51982;51.042;13.806;2023-11-18T09:06:50;4.40;;;2.72;;
65377;SDS011;51982;51.042;13.806;2023-11-18T09:09:18;3.75;;;1.73;;
65377;SDS011;51982;51.042;13.806;2023-11-18T09:11:51;4.35;;;2.67;;
65377;SDS011;51982;51.042;13.806;2023-11-18T09:14:17;5.22;;;2.67;;
65377;SDS011;51982;51.042;13.806;2023-11-18T09:16:44;4.53;;;2.38;;
65377;SDS011;51982;51.042;13.806;2023-11-18T09:19:10;3.58;;;2.25;;
65377;SDS011;51982;51.042;13.806;2023-11-18T09:21:35;3.72;;;2.42;;
65377;SDS011;51982;51.042;13.806;2023-11-18T09:24:01;3.38;;;2.30;;
65377;SDS011;51982;51.042;13.806;2023-11-18T09:26:32;5.13;;;2.60;;
65377;SDS011;51982;51.042;13.806;2023-11-18T09:28:58;3.45;;;2.38;;
65377;SDS011;51982;51.042;13.806;2023-11-18T09:31:26;4.07;;;2.75;;
65377;SDS011;51982;51.042;13.806;2023-11-18T09:33:52;4.57;;;2.75;;
65377;SDS011;51982;51.042;13.806;2023-11-18T09:36:17;4.05;;;2.80;;
65377;SDS011;51982;51.042;13.806;2023-11-18T09:38:43;4.22;;;2.78;;
65377;SDS011;51982;51.042;13.806;2023-11-18T09:41:11;5.45;;;2.80;;
65377;SDS011;51982;51.042;13.806;2023-11-18T09:43:37;4.30;;;2.97;;
65377;SDS011;51982;51.042;13.806;2023-11-18T09:46:27;4.10;;;2.72;;
65377;SDS011;51982;51.042;13.806;2023-11-18T09:49:21;4.80;;;3.08;;
65377;SDS011;51982;51.042;13.806;2023-11-18T09:51:50;3.95;;;2.63;;
65377;SDS011;51982;51.042;13.806;2023-11-18T09:54:27;5.63;;;2.95;;
65377;SDS011;51982;51.042;13.806;2023-11-18T09:57:07;4.18;;;2.72;;
65377;SDS011;51982;51.042;13.806;2023-11-18T09:59:46;5.88;;;2.85;;
65377;SDS011;51982;51.042;13.806;2023-11-18T10:02:19;4.60;;;2.83;;
65377;SDS011;51982;51.042;13.806;2023-11-18T10:04:48;3.75;;;2.53;;
65377;SDS011;51982;51.042;13.806;2023-11-18T10:07:18;6.63;;;2.75;;
65377;SDS011;51982;51.042;13.806;2023-11-18T10:09:45;4.13;;;2.85;;
65377;SDS011;51982;51.042;13.806;2023-11-18T10:12:12;4.03;;;2.55;;
65377;SDS011;51982;51.042;13.806;2023-11-18T10:14:41;5.57;;;3.28;;
65377;SDS011;51982;51.042;13.806;2023-11-18T10:17:13;2.75;;;1.48;;
65377;SDS011;51982;51.042;13.806;2023-11-18T10:19:56;2.60;;;1.92;;
65377;SDS011;51982;51.042;13.806;2023-11-18T10:22:28;5.97;;;2.60;;
65377;SDS011;51982;51.042;13.806;2023-11-18T10:24:55;5.55;;;2.90;;
65377;SDS011;51982;51.042;13.806;2023-11-18T10:27:29;5.78;;;3.38;;
65377;SDS011;51982;51.042;13.806;2023-11-18T10:29:58;4.75;;;3.00;;
65377;SDS011;51982;51.042;13.806;2023-11-18T10:32:27;5.47;;;2.70;;
65377;SDS011;51982;51.042;13.806;2023-11-18T10:34:54;3.72;;;2.67;;
65377;SDS011;51982;51.042;13.806;2023-11-18T10:37:21;3.40;;;2.40;;
65377;SDS011;51982;51.042;13.806;2023-11-18T10:39:47;4.15;;;2.75;;
65377;SDS011;51982;51.042;13.806;2023-11-18T10:42:25;5.25;;;2.65;;
65377;SDS011;51982;51.042;13.806;2023-11-18T10:44:55;6.22;;;2.70;;
65377;SDS011;51982;51.042;13.806;2023-11-18T10:47:22;4.68;;;2.80;;
65377;SDS011;51982;51.042;13.806;2023-11-18T10:49:50;6.65;;;2.70;;
65377;SDS011;51982;51.042;13.806;2023-11-18T10:52:16;3.95;;;2.45;;
65377;SDS011;51982;51.042;13.806;2023-11-18T10:54:52;4.10;;;2.90;;
65377;SDS011;51982;51.042;13.806;2023-11-18T10:57:19;4.70;;;2.78;;
65377;SDS011;51982;51.042;13.806;2023-11-18T11:00:01;4.40;;;2.40;;
65377;SDS011;51982;51.042;13.806;2023-11-18T11:02:37;3.83;;;2.85;;
65377;SDS011;51982;51.042;13.806;2023-11-18T11:05:06;3.88;;;2.45;;
65377;SDS011;51982;51.042;13.806;2023-11-18T11:07:43;2.58;;;1.58;;
65377;SDS011;51982;51.042;13.806;2023-11-18T11:10:10;3.55;;;2.03;;
65377;SDS011;51982;51.042;13.806;2023-11-18T11:12:42;3.60;;;2.40;;
65377;SDS011;51982;51.042;13.806;2023-11-18T11:15:17;3.10;;;2.20;;
65377;SDS011;51982;51.042;13.806;2023-11-18T11:17:52;2.20;;;1.83;;
65377;SDS011;51982;51.042;13.806;2023-11-18T11:29:54;2.47;;;1.60;;
65377;SDS011;51982;51.042;13.806;2023-11-18T11:32:32;2.92;;;1.85;;
65377;SDS011;51982;51.042;13.806;2023-11-18T11:35:03;2.65;;;1.60;;
65377;SDS011;51982;51.042;13.806;2023-11-18T11:37:33;1.90;;;1.40;;
65377;SDS011;51982;51.042;13.806;2023-11-18T11:40:02;4.30;;;1.65;;
65377;SDS011;51982;51.042;13.806;2023-11-18T11:42:34;1.83;;;1.30;;
65377;SDS011;51982;51.042;13.806;2023-11-18T11:45:00;3.20;;;1.40;;
65377;SDS011;51982;51.042;13.806;2023-11-18T11:47:27;2.80;;;1.27;;
65377;SDS011;51982;51.042;13.806;2023-11-18T11:50:02;2.13;;;1.13;;
65377;SDS011;51982;51.042;13.806;2023-11-18T11:52:47;1.42;;;1.00;;
65377;SDS011;51982;51.042;13.806;2023-11-18T11:55:19;0.60;;;0.60;;
65377;SDS011;51982;51.042;13.806;2023-11-18T11:57:55;0.63;;;0.63;;
65377;SDS011;51982;51.042;13.806;2023-11-18T12:00:23;0.70;;;0.57;;
65377;SDS011;51982;51.042;13.806;2023-11-18T12:02:51;1.02;;;0.65;;
65377;SDS011;51982;51.042;13.806;2023-11-18T12:05:20;0.77;;;0.60;;
65377;SDS011;51982;51.042;13.806;2023-11-18T12:07:50;0.82;;;0.70;;
65377;SDS011;51982;51.042;13.806;2023-11-18T12:10:20;1.48;;;0.90;;
65377;SDS011;51982;51.042;13.806;2023-11-18T12:12:48;2.30;;;1.20;;
65377;SDS011;51982;51.042;13.806;2023-11-18T12:15:17;1.60;;;1.10;;
65377;SDS011;51982;51.042;13.806;2023-11-18T12:20:56;0.90;;;0.80;;
65377;SDS011;51982;51.042;13.806;2023-11-18T12:23:26;2.85;;;1.20;;
65377;SDS011;51982;51.042;13.806;2023-11-18T12:25:52;1.15;;;1.02;;
65377;SDS011;51982;51.042;13.806;2023-11-18T12:28:25;1.30;;;1.10;;
65377;SDS011;51982;51.042;13.806;2023-11-18T12:30:55;1.67;;;1.00;;
65377;SDS011;51982;51.042;13.806;2023-11-18T12:33:21;3.20;;;1.20;;
65377;SDS011;51982;51.042;13.806;2023-11-18T12:36:21;2.13;;;1.35;;
65377;SDS011;51982;51.042;13.806;2023-11-18T12:39:27;1.50;;;1.15;;
65377;SDS011;51982;51.042;13.806;2023-11-18T12:42:08;1.50;;;1.23;;
65377;SDS011;51982;51.042;13.806;2023-11-18T12:47:39;2.55;;;1.52;;
65377;SDS011;51982;51.042;13.806;2023-11-18T12:50:09;2.17;;;1.50;;
65377;SDS011;51982;51.042;13.806;2023-11-18T12:52:42;1.48;;;1.30;;
65377;SDS011;51982;51.042;13.806;2023-11-18T12:55:14;1.92;;;1.40;;
65377;SDS011;51982;51.042;13.806;2023-11-18T12:57:47;2.05;;;1.45;;
65377;SDS011;51982;51.042;13.806;2023-11-18T13:00:13;1.80;;;1.40;;
65377;SDS011;51982;51.042;13.806;2023-11-18T13:02:43;2.80;;;1.40;;
65377;SDS011;51982;51.042;13.806;2023-11-18T13:05:09;1.98;;;1.45;;
65377;SDS011;51982;51.042;13.806;2023-11-18T13:07:34;2.88;;;1.50;;
65377;SDS011;51982;51.042;13.806;2023-11-18T13:10:01;2.78;;;1.40;;
65377;SDS011;51982;51.042;13.806;2023-11-18T13:12:29;2.17;;;1.33;;
65377;SDS011;51982;51.042;13.806;2023-11-18T13:14:55;2.00;;;1.50;;
65377;SDS011;51982;51.042;13.806;2023-11-18T13:17:21;2.83;;;1.45;;
65377;SDS011;51982;51.042;13.806;2023-11-18T13:19:47;1.98;;;1.52;;
65377;SDS011;51982;51.042;13.806;2023-11-18T13:22:19;2.22;;;1.65;;
65377;SDS011;51982;51.042;13.806;2023-11-18T13:24:45;2.80;;;1.80;;
65377;SDS011;51982;51.042;13.806;2023-11-18T13:27:12;2.50;;;1.80;;
65377;SDS011;51982;51.042;13.806;2023-11-18T13:29:39;2.92;;;1.90;;
65377;SDS011;51982;51.042;13.806;2023-11-18T13:32:10;4.35;;;2.03;;
65377;SDS011;51982;51.042;13.806;2023-11-18T13:34:37;2.88;;;1.80;;
65377;SDS011;51982;51.042;13.806;2023-11-18T13:37:10;2.75;;;2.17;;
65377;SDS011;51982;51.042;13.806;2023-11-18T13:39:38;3.17;;;2.08;;
65377;SDS011;51982;51.042;13.806;2023-11-18T13:44:45;3.40;;;2.30;;
65377;SDS011;51982;51.042;13.806;2023-11-18T13:47:12;2.35;;;1.60;;
65377;SDS011;51982;51.042;13.806;2023-11-18T13:49:38;3.15;;;2.20;;
65377;SDS011;51982;51.042;13.806;2023-11-18T13:52:07;4.30;;;2.15;;
65377;SDS011;51982;51.042;13.806;2023-11-18T13:54:37;2.63;;;2.00;;
65377;SDS011;51982;51.042;13.806;2023-11-18T13:57:03;2.95;;;1.88;;
65377;SDS011;51982;51.042;13.806;2023-11-18T13:59:29;3.13;;;2.05;;
65377;SDS011;51982;51.042;13.806;2023-11-18T14:01:55;2.35;;;1.92;;
65377;SDS011;51982;51.042;13.806;2023-11-18T14:07:00;4.32;;;2.20;;
65377;SDS011;51982;51.042;13.806;2023-11-18T14:09:30;2.85;;;2.25;;
65377;SDS011;51982;51.042;13.806;2023-11-18T14:12:00;3.00;;;2.13;;
65377;SDS011;51982;51.042;13.806;2023-11-18T14:14:26;3.28;;;2.40;;
65377;SDS011;51982;51.042;13.806;2023-11-18T14:16:52;3.38;;;2.08;;
65377;SDS011;51982;51.042;13.806;2023-11-18T14:19:18;4.20;;;2.28;;
65377;SDS011;51982;51.042;13.806;2023-11-18T14:21:44;3.22;;;2.33;;
65377;SDS011;51982;51.042;13.806;2023-11-18T14:24:10;2.65;;;2.10;;
65377;SDS011;51982;51.042;13.806;2023-11-18T14:26:36;2.60;;;2.10;;
65377;SDS011;51982;51.042;13.806;2023-11-18T14:29:02;3.70;;;2.38;;
65377;SDS011;51982;51.042;13.806;2023-11-18T14:31:27;2.75;;;2.20;;
65377;SDS011;51982;51.042;13.806;2023-11-18T14:33:53;4.30;;;2.58;;
65377;SDS011;51982;51.042;13.806;2023-11-18T14:36:23;6.88;;;2.60;;
65377;SDS011;51982;51.042;13.806;2023-11-18T14:38:49;3.67;;;2.47;;
65377;SDS011;51982;51.042;13.806;2023-11-18T14:41:14;7.53;;;3.53;;
65377;SDS011;51982;51.042;13.806;2023-11-18T14:43:40;13.95;;;7.10;;
65377;SDS011;51982;51.042;13.806;2023-11-18T14:46:06;11.27;;;5.43;;
65377;SDS011;51982;51.042;13.806;2023-11-18T14:48:33;7.57;;;4.60;;
65377;SDS011;51982;51.042;13.806;2023-11-18T14:50:58;7.65;;;4.70;;
65377;SDS011;51982;51.042;13.806;2023-11-18T14:53:23;8.93;;;4.10;;
65377;SDS011;51982;51.042;13.806;2023-11-18T14:55:49;10.70;;;4.93;;
65377;SDS011;51982;51.042;13.806;2023-11-18T14:58:15;15.13;;;7.95;;
65377;SDS011;51982;51.042;13.806;2023-11-18T15:00:40;5.72;;;3.65;;